Time;durP1;ratioP1;P1;durP2;ratioP2;P2;SDS_P1;SDS_P2;PMS_P1;PMS_P2;Temp;Humidity;BMP_temperature;BMP_pressure;BME280_temperature;BME280_humidity;BME280_pressure;Samples;Min_cycle;Max_cycle;Signal;HPM_P1;HPM_P2
2022/05/20 00:00:50;;;;;;;5.85;2.20;;;;;;;19.87;55.63;101470.22;4957317;28;20051;-68
2022/05/20 00:03:17;;;;;;;6.03;2.03;;;;;;;19.76;55.94;101472.72;4957109;28;20063;-68
2022/05/20 00:05:45;;;;;;;8.50;1.95;;;;;;;19.72;55.66;101479.34;4957939;28;20044;-67
2022/05/20 00:08:13;;;;;;;7.25;1.63;;;;;;;19.64;56.46;101477.53;4975094;28;20044;-68
2022/05/20 00:10:40;;;;;;;7.93;1.90;;;;;;;19.65;55.82;101468.78;4975054;28;20053;-70
2022/05/20 00:13:09;;;;;;;8.13;2.03;;;;;;;19.38;56.89;101471.59;4973724;28;20102;-68
2022/05/20 00:15:37;;;;;;;5.03;2.05;;;;;;;19.30;57.18;101456.59;4958011;28;20047;-69
2022/05/20 00:18:04;;;;;;;7.53;2.00;;;;;;;19.39;56.86;101462.03;4958263;28;20062;-68
2022/05/20 00:20:32;;;;;;;6.75;1.92;;;;;;;19.38;56.56;101460.41;4956946;28;20051;-66
2022/05/20 00:23:00;;;;;;;8.15;2.17;;;;;;;19.20;56.94;101451.47;4960014;28;20498;-67
2022/05/20 00:25:46;;;;;;;7.32;1.67;;;;;;;19.28;56.67;101453.31;4960079;28;20055;-67
2022/05/20 00:28:13;;;;;;;5.88;1.63;;;;;;;19.32;55.80;101454.25;4945618;29;20047;-67
2022/05/20 00:30:41;;;;;;;8.00;1.80;;;;;;;19.36;55.95;101454.34;4940760;28;20047;-67
2022/05/20 00:33:09;;;;;;;8.20;2.13;;;;;;;19.46;55.27;101462.22;4935902;29;20047;-68
2022/05/20 00:35:36;;;;;;;10.73;2.17;;;;;;;19.73;53.93;101456.66;4972025;28;20496;-69
2022/05/20 00:38:04;;;;;;;8.65;1.73;;;;;;;19.46;54.22;101460.25;4971039;28;20047;-68
2022/05/20 00:40:32;;;;;;;5.90;1.50;;;;;;;19.42;54.07;101452.94;4976683;28;20414;-68
2022/05/20 00:43:27;;;;;;;8.68;2.00;;;;;;;19.47;54.07;101452.69;4966006;28;20043;-68
2022/05/20 00:46:01;;;;;;;7.82;1.52;;;;;;;19.58;53.17;101460.19;4968673;28;20046;-67
2022/05/20 00:48:29;;;;;;;6.35;1.38;;;;;;;19.51;51.98;101456.41;4958952;28;20061;-67
2022/05/20 00:51:09;;;;;;;5.05;1.38;;;;;;;19.54;51.96;101455.69;4976919;28;20066;-67
2022/05/20 00:53:50;;;;;;;4.53;1.55;;;;;;;19.47;52.16;101449.91;4978633;28;20055;-68
2022/05/20 00:56:23;;;;;;;5.90;1.50;;;;;;;19.38;51.90;101452.84;4990794;28;20058;-68
2022/05/20 00:58:52;;;;;;;5.78;1.33;;;;;;;19.29;52.41;101448.53;4991349;28;20073;-68
2022/05/20 01:01:19;;;;;;;5.95;1.73;;;;;;;19.41;51.91;101454.09;4986496;28;20501;-67
2022/05/20 01:03:47;;;;;;;7.78;1.65;;;;;;;19.60;51.46;101455.06;4977772;28;20050;-68
2022/05/20 01:06:15;;;;;;;7.47;1.80;;;;;;;19.54;51.18;101442.53;4985662;28;20050;-67
2022/05/20 01:08:42;;;;;;;6.50;1.75;;;;;;;19.52;51.75;101433.69;4980666;28;20046;-66
2022/05/20 01:11:10;;;;;;;7.38;1.80;;;;;;;19.61;51.46;101434.38;4985718;28;20062;-68
2022/05/20 01:13:38;;;;;;;5.55;1.55;;;;;;;19.76;51.08;101429.94;4993901;28;20054;-68
2022/05/20 01:16:08;;;;;;;7.63;1.52;;;;;;;19.85;50.80;101423.03;4985713;28;20570;-68
2022/05/20 01:18:38;;;;;;;6.05;1.48;;;;;;;20.06;50.31;101406.00;4985677;28;20045;-68
2022/05/20 01:21:06;;;;;;;6.70;1.75;;;;;;;20.04;49.96;101411.97;4976833;28;20062;-69
2022/05/20 01:23:34;;;;;;;6.72;1.48;;;;;;;20.00;50.05;101402.66;4976752;28;20051;-68
2022/05/20 01:26:02;;;;;;;6.90;1.70;;;;;;;19.69;50.24;101397.03;4983185;28;20055;-68
2022/05/20 01:28:31;;;;;;;6.72;1.58;;;;;;;19.59;50.80;101396.75;4979746;28;20054;-69
2022/05/20 01:31:01;;;;;;;7.22;1.60;;;;;;;19.49;51.13;101398.06;4981683;28;20478;-67
2022/05/20 01:33:31;;;;;;;4.80;1.33;;;;;;;19.61;51.09;101400.00;4983709;28;20043;-67
2022/05/20 01:36:00;;;;;;;5.35;1.35;;;;;;;19.66;51.03;101392.16;4979404;28;20077;-68
2022/05/20 01:38:30;;;;;;;5.30;1.65;;;;;;;19.65;50.35;101378.56;4980490;28;20061;-69
2022/05/20 01:41:08;;;;;;;5.03;1.50;;;;;;;19.68;50.78;101370.22;4978215;28;20069;-67
2022/05/20 01:44:12;;;;;;;7.75;1.50;;;;;;;19.61;50.49;101372.88;4958120;28;20055;-67
2022/05/20 01:46:58;;;;;;;6.30;1.77;;;;;;;19.36;51.28;101376.13;4939535;28;20058;-69
2022/05/20 01:49:46;;;;;;;6.85;1.58;;;;;;;19.52;50.98;101369.44;4990544;28;20051;-68
2022/05/20 01:52:50;;;;;;;3.42;1.05;;;;;;;19.56;50.51;101370.31;4975739;28;20055;-69
2022/05/20 01:55:50;;;;;;;6.68;1.55;;;;;;;19.52;51.04;101368.59;4981119;28;20042;-70
2022/05/20 01:58:22;;;;;;;;;;;;;;;19.53;50.86;101367.41;4991271;28;20043;-67
2022/05/20 02:00:58;;;;;;;8.50;1.80;;;;;;;19.52;50.49;101363.00;4989591;28;20296;-68
2022/05/20 02:03:50;;;;;;;10.10;1.80;;;;;;;19.37;50.94;101361.81;4989004;28;20514;-69
2022/05/20 02:06:27;;;;;;;6.25;1.45;;;;;;;19.62;50.93;101349.31;4964438;28;20054;-70
2022/05/20 02:09:00;;;;;;;8.63;2.05;;;;;;;19.63;50.89;101342.56;4990302;28;20127;-69
2022/05/20 02:11:31;;;;;;;4.18;1.40;;;;;;;19.50;51.29;101343.81;4983289;28;20062;-67
2022/05/20 02:14:10;;;;;;;6.50;1.80;;;;;;;19.73;50.85;101335.63;4990230;28;20062;-68
2022/05/20 02:16:41;;;;;;;4.30;1.40;;;;;;;19.79;50.86;101335.00;4981366;28;20051;-68
2022/05/20 02:19:16;;;;;;;6.35;1.67;;;;;;;19.96;50.42;101331.84;4973624;28;20058;-69
2022/05/20 02:21:51;;;;;;;8.57;1.73;;;;;;;20.05;49.97;101326.88;4977778;28;20055;-68
2022/05/20 02:24:21;;;;;;;7.93;2.33;;;;;;;19.99;50.42;101330.31;4985920;28;20050;-67
2022/05/20 02:26:52;;;;;;;9.75;1.70;;;;;;;20.01;50.70;101331.56;4947824;28;20410;-67
2022/05/20 02:29:24;;;;;;;6.25;2.03;;;;;;;19.79;51.33;101329.41;4973664;28;20498;-67
2022/05/20 02:31:54;;;;;;;5.30;1.65;;;;;;;19.84;51.07;101326.34;4965851;28;20054;-67
2022/05/20 02:34:21;;;;;;;5.28;1.73;;;;;;;19.74;51.88;101323.25;4981373;28;20054;-68
2022/05/20 02:36:49;;;;;;;5.70;1.67;;;;;;;19.72;52.30;101320.00;4964126;28;20052;-68
2022/05/20 02:39:17;;;;;;;9.27;1.67;;;;;;;19.85;52.38;101315.97;4957549;28;20044;-68
2022/05/20 02:41:48;;;;;;;6.25;1.65;;;;;;;19.77;52.34;101316.97;4961818;28;20058;-68
2022/05/20 02:44:16;;;;;;;6.05;1.52;;;;;;;19.78;51.86;101313.81;4961228;28;20073;-69
2022/05/20 02:46:48;;;;;;;7.50;1.52;;;;;;;19.93;51.54;101320.56;4956983;28;20050;-68
2022/05/20 02:49:16;;;;;;;8.65;1.90;;;;;;;19.92;51.39;101308.59;4952675;28;20055;-68
2022/05/20 02:51:43;;;;;;;6.70;1.48;;;;;;;19.84;51.34;101308.78;4954742;28;20047;-68
2022/05/20 02:54:11;;;;;;;6.55;2.00;;;;;;;19.85;51.71;101313.19;4970351;28;20144;-69
2022/05/20 02:56:38;;;;;;;8.02;1.80;;;;;;;19.84;51.47;101309.56;4942097;28;20046;-69
2022/05/20 03:04:37;;;;;;;6.32;1.50;;;;;;;19.92;51.81;101316.97;4956062;28;20506;-67
2022/05/20 03:07:05;;;;;;;7.68;1.73;;;;;;;19.79;52.31;101315.44;4970980;28;20505;-66
2022/05/20 03:09:33;;;;;;;6.68;1.95;;;;;;;19.57;53.12;101321.66;4956739;28;20055;-68
2022/05/20 03:12:01;;;;;;;6.13;1.67;;;;;;;19.62;53.24;101315.78;4956232;28;20449;-68
2022/05/20 03:14:28;;;;;;;6.65;1.60;;;;;;;19.39;53.62;101306.38;4951190;29;20401;-69
2022/05/20 03:16:59;;;;;;;9.45;1.77;;;;;;;19.57;52.72;101309.66;4972989;28;20525;-68
2022/05/20 03:19:33;;;;;;;5.82;1.65;;;;;;;19.68;52.51;101305.94;4960815;28;20050;-68
2022/05/20 03:22:01;;;;;;;5.72;1.95;;;;;;;19.48;53.03;101312.63;4967757;28;20490;-69
2022/05/20 03:24:29;;;;;;;8.63;1.90;;;;;;;19.58;53.09;101312.09;4959404;28;20117;-68
2022/05/20 03:26:57;;;;;;;7.03;1.98;;;;;;;19.66;52.81;101310.28;4962317;28;20050;-69
2022/05/20 03:29:25;;;;;;;7.88;2.10;;;;;;;19.57;53.25;101307.69;4969108;28;20054;-67
2022/05/20 03:31:52;;;;;;;4.65;1.80;;;;;;;19.64;52.98;101312.63;4969163;28;20391;-69
2022/05/20 03:34:20;;;;;;;9.15;1.98;;;;;;;19.45;53.61;101304.97;4967583;28;20057;-69
2022/05/20 03:36:50;;;;;;;5.68;1.88;;;;;;;19.51;53.53;101309.09;4972412;28;20069;-69
2022/05/20 03:39:21;;;;;;;8.13;1.63;;;;;;;19.29;52.98;101309.69;4977270;28;20046;-69
2022/05/20 03:41:49;;;;;;;5.95;1.48;;;;;;;19.12;53.39;101304.41;4986791;28;20050;-67
2022/05/20 03:44:17;;;;;;;10.00;2.00;;;;;;;18.84;54.79;101295.22;4992936;28;20059;-68
2022/05/20 03:46:47;;;;;;;6.97;1.73;;;;;;;18.85;54.94;101300.44;4978385;28;20058;-69
2022/05/20 03:49:14;;;;;;;;;;;;;;;19.00;54.63;101296.09;4963524;28;20502;-68
2022/05/20 03:51:42;;;;;;;7.75;1.90;;;;;;;19.11;54.50;101290.81;4988395;28;19947;-67
2022/05/20 03:54:09;;;;;;;9.75;2.03;;;;;;;19.23;53.79;101279.56;4993801;28;20089;-68
2022/05/20 03:56:40;;;;;;;5.72;2.05;;;;;;;19.29;53.60;101283.72;4987538;28;20042;-67
2022/05/20 03:59:09;;;;;;;8.10;1.85;;;;;;;19.19;54.20;101276.69;4973222;28;20051;-67
2022/05/20 04:01:56;;;;;;;9.05;2.30;;;;;;;19.13;54.53;101271.69;4992317;28;20063;-68
2022/05/20 04:04:27;;;;;;;10.65;1.92;;;;;;;19.21;54.70;101276.31;4964454;28;20061;-69
2022/05/20 04:06:55;;;;;;;7.38;1.90;;;;;;;19.32;54.55;101275.47;4973104;28;20402;-69
2022/05/20 04:09:22;;;;;;;6.03;1.80;;;;;;;19.12;55.26;101275.66;4979308;28;20055;-69
2022/05/20 04:11:53;;;;;;;9.77;3.08;;;;;;;19.05;55.55;101284.66;4984630;28;20588;-69
2022/05/20 04:14:21;;;;;;;9.10;2.28;;;;;;;19.01;55.72;101280.97;4976876;28;20062;-67
2022/05/20 04:16:54;;;;;;;7.55;1.80;;;;;;;19.26;55.30;101262.09;4974899;28;20716;-68
2022/05/20 04:19:22;;;;;;;8.15;2.28;;;;;;;19.44;54.52;101269.78;4972052;28;20053;-68
2022/05/20 04:21:52;;;;;;;7.85;2.30;;;;;;;19.42;54.53;101269.34;4975526;28;20046;-67
2022/05/20 04:24:20;;;;;;;8.55;2.15;;;;;;;19.53;54.37;101272.41;4985326;28;20049;-66
2022/05/20 04:26:48;;;;;;;9.85;2.60;;;;;;;19.70;53.83;101281.25;4988096;28;20051;-70
2022/05/20 04:29:15;;;;;;;9.82;2.30;;;;;;;19.74;54.14;101284.94;4983106;28;20057;-69
2022/05/20 04:31:46;;;;;;;6.50;2.13;;;;;;;19.47;54.81;101271.88;4983121;28;20054;-67
2022/05/20 04:34:13;;;;;;;9.18;2.90;;;;;;;19.12;55.85;101292.44;4997020;28;20055;-67
2022/05/20 04:36:41;;;;;;;10.60;3.42;;;;;;;19.14;55.77;101290.09;4975147;28;20526;-67
2022/05/20 04:39:08;;;;;;;20.42;3.47;;;;;;;19.09;56.30;101293.94;4977484;28;20054;-67
2022/05/20 04:47:14;;;;;;;14.45;3.85;;;;;;;20.04;53.81;101282.50;4963643;28;20053;-70
2022/05/20 04:49:42;;;;;;;11.80;4.10;;;;;;;19.96;54.42;101301.06;4970052;28;20123;-67
2022/05/20 04:52:09;;;;;;;13.00;3.70;;;;;;;19.92;54.49;101300.19;4990893;28;20509;-68
2022/05/20 04:54:52;;;;;;;9.68;3.42;;;;;;;20.02;54.27;101305.22;4983913;28;20394;-67
2022/05/20 04:57:48;;;;;;;10.25;3.00;;;;;;;20.17;53.79;101301.63;4979495;28;20051;-67
2022/05/20 05:00:14;;;;;;;12.45;3.42;;;;;;;20.19;54.01;101304.03;4956197;28;20167;-67
2022/05/20 05:02:41;;;;;;;8.68;2.75;;;;;;;19.94;54.32;101308.22;4991458;28;20549;-68
2022/05/20 05:05:12;;;;;;;10.75;2.45;;;;;;;19.75;55.06;101306.13;4962826;28;20070;-67
2022/05/20 05:07:42;;;;;;;7.10;2.38;;;;;;;19.58;56.04;101308.50;4998161;28;20042;-67
2022/05/20 05:10:12;;;;;;;7.82;3.00;;;;;;;19.75;55.77;101313.72;4991689;28;20055;-69
2022/05/20 05:12:39;;;;;;;9.07;2.85;;;;;;;19.85;55.15;101308.41;4983682;28;20050;-69
2022/05/20 05:15:07;;;;;;;8.27;2.38;;;;;;;19.79;54.96;101311.81;4988701;28;20050;-67
2022/05/20 05:20:23;;;;;;;7.88;2.22;;;;;;;19.85;55.75;101307.59;4987870;28;20138;-69
2022/05/20 05:22:53;;;;;;;12.63;2.28;;;;;;;19.98;55.30;101301.53;4973921;28;20058;-70
2022/05/20 05:25:24;;;;;;;7.95;2.60;;;;;;;20.16;55.00;101296.38;4979076;28;20058;-67
2022/05/20 05:27:52;;;;;;;6.70;2.63;;;;;;;20.15;55.01;101291.94;4992923;28;20387;-67
2022/05/20 05:30:19;;;;;;;11.52;3.10;;;;;;;20.43;55.00;101286.22;4982180;28;20053;-69
2022/05/20 05:32:47;;;;;;;10.32;2.22;;;;;;;20.40;54.86;101287.75;5005970;28;20061;-68
2022/05/20 05:35:18;;;;;;;8.77;2.42;;;;;;;20.54;54.83;101285.28;4974360;28;20063;-68
2022/05/20 05:37:45;;;;;;;7.63;2.20;;;;;;;20.41;55.39;101281.00;4988174;28;20058;-67
2022/05/20 05:40:16;;;;;;;9.88;2.70;;;;;;;20.53;55.20;101280.03;4979232;28;20062;-67
2022/05/20 05:42:43;;;;;;;8.27;2.53;;;;;;;20.65;54.96;101274.31;4976948;28;20055;-69
2022/05/20 05:45:14;;;;;;;7.50;2.55;;;;;;;20.31;56.22;101272.34;4976958;28;20058;-68
2022/05/20 05:47:41;;;;;;;8.65;2.50;;;;;;;20.33;55.98;101262.41;4971783;28;20065;-68
2022/05/20 05:50:09;;;;;;;10.60;2.70;;;;;;;20.21;56.45;101247.75;4982117;28;20129;-68
2022/05/20 05:52:37;;;;;;;11.45;3.28;;;;;;;20.05;56.88;101240.16;4985742;28;20528;-69
2022/05/20 05:55:04;;;;;;;9.20;2.75;;;;;;;20.15;57.42;101247.97;4959374;28;20055;-69
2022/05/20 05:57:32;;;;;;;9.75;2.95;;;;;;;20.04;58.26;101265.72;4973870;28;20557;-70
2022/05/20 06:00:01;;;;;;;11.65;2.97;;;;;;;20.17;58.00;101264.47;4984730;28;20050;-69
2022/05/20 06:02:38;;;;;;;12.27;3.20;;;;;;;20.15;59.00;101280.75;4975063;28;20057;-69
2022/05/20 06:05:06;;;;;;;9.82;3.72;;;;;;;20.30;59.13;101290.31;4977370;28;20497;-67
2022/05/20 06:07:33;;;;;;;14.55;3.83;;;;;;;20.23;60.29;101287.34;4980673;28;20043;-70
2022/05/20 06:10:01;;;;;;;10.25;3.95;;;;;;;20.10;61.35;101289.44;4983045;28;20081;-69
2022/05/20 06:12:31;;;;;;;11.07;4.03;;;;;;;20.08;61.61;101277.78;4956578;28;20050;-69
2022/05/20 06:15:02;;;;;;;9.40;3.97;;;;;;;20.25;62.16;101277.41;4985072;28;20077;-70
2022/05/20 06:17:30;;;;;;;9.38;3.50;;;;;;;19.98;63.63;101272.75;4976134;28;20051;-70
2022/05/20 06:19:59;;;;;;;10.60;3.37;;;;;;;19.98;63.86;101256.78;4983442;28;20046;-68
2022/05/20 06:22:27;;;;;;;12.40;3.50;;;;;;;19.78;64.17;101254.28;4991836;28;20426;-68
2022/05/20 06:24:54;;;;;;;14.27;3.15;;;;;;;19.71;64.90;101234.53;4982406;28;20062;-67
2022/05/20 06:27:21;;;;;;;16.73;4.18;;;;;;;19.50;66.23;101181.75;4970129;28;20058;-70
2022/05/20 06:29:50;;;;;;;10.05;3.78;;;;;;;19.43;67.31;101186.34;4974302;28;20061;-69
2022/05/20 06:32:18;;;;;;;16.08;4.85;;;;;;;19.26;68.21;101190.28;4971408;28;20123;-70
2022/05/20 06:40:19;;;;;;;12.82;3.28;;;;;;;20.00;67.22;101251.63;4973842;28;20047;-68
2022/05/20 06:42:47;;;;;;;11.80;3.60;;;;;;;20.00;67.71;101237.66;4989182;28;20087;-68
2022/05/20 06:45:16;;;;;;;10.68;3.50;;;;;;;19.99;66.58;101236.03;4970705;28;20485;-67
2022/05/20 06:47:43;;;;;;;10.90;3.83;;;;;;;20.14;66.04;101206.41;4973269;28;20054;-67
2022/05/20 06:50:12;;;;;;;12.38;3.90;;;;;;;20.54;64.64;101175.31;4977314;28;20047;-68
2022/05/20 06:52:39;;;;;;;15.48;4.00;;;;;;;20.43;64.13;101132.31;4965274;28;20047;-67
2022/05/20 06:55:08;;;;;;;10.85;3.85;;;;;;;20.07;65.65;101105.56;4991515;28;20063;-68
2022/05/20 06:57:39;;;;;;;10.35;3.63;;;;;;;20.01;66.49;101063.06;4961514;28;20050;-68
2022/05/20 07:00:11;;;;;;;11.55;4.10;;;;;;;19.99;66.74;101026.31;4977544;28;20046;-69
2022/05/20 07:02:40;;;;;;;12.23;3.53;;;;;;;19.83;67.92;101016.38;4976963;28;20047;-69
2022/05/20 07:05:09;;;;;;;15.85;4.63;;;;;;;19.75;68.45;101015.41;4978613;28;20065;-69
2022/05/20 07:07:37;;;;;;;13.63;4.35;;;;;;;19.73;68.99;101003.81;4977935;28;20047;-67
2022/05/20 07:10:06;;;;;;;14.93;4.28;;;;;;;19.71;69.98;101000.56;4977040;28;20447;-68
2022/05/20 07:12:34;;;;;;;11.13;4.00;;;;;;;19.94;69.19;101011.81;4993465;28;20065;-68
2022/05/20 07:15:03;;;;;;;11.05;4.60;;;;;;;19.80;69.71;101023.53;4977714;28;20055;-68
2022/05/20 07:17:35;;;;;;;21.70;4.95;;;;;;;19.51;71.46;101032.47;4955203;28;20066;-67
2022/05/20 07:20:06;;;;;;;11.50;5.22;;;;;;;19.89;70.30;101028.88;4973833;28;20051;-68
2022/05/20 07:22:34;;;;;;;17.48;5.50;;;;;;;20.22;69.48;101047.94;4976610;28;20410;-68
2022/05/20 07:25:01;;;;;;;17.55;4.80;;;;;;;20.37;68.90;101066.63;4974631;28;20058;-68
2022/05/20 07:27:30;;;;;;;12.52;4.90;;;;;;;20.24;68.96;101073.56;4969234;28;20390;-68
2022/05/20 07:29:58;;;;;;;12.25;4.85;;;;;;;20.27;69.42;101059.66;4979033;28;20046;-68
2022/05/20 07:32:26;;;;;;;15.20;4.65;;;;;;;20.57;67.98;101051.41;4966564;28;20518;-68
2022/05/20 07:34:53;;;;;;;11.60;4.68;;;;;;;20.54;68.69;101069.75;4978129;28;20050;-69
2022/05/20 07:37:20;;;;;;;13.07;4.72;;;;;;;20.82;68.01;101083.44;4977610;28;20517;-69
2022/05/20 07:39:48;;;;;;;16.77;5.30;;;;;;;20.77;68.58;101089.34;4977017;28;20824;-68
2022/05/20 07:42:15;;;;;;;14.20;4.38;;;;;;;20.94;68.16;101091.66;4976867;28;20413;-68
2022/05/20 07:44:43;;;;;;;9.15;4.45;;;;;;;20.98;68.19;101128.94;4987648;28;20051;-68
2022/05/20 07:47:10;;;;;;;16.02;5.20;;;;;;;20.73;69.27;101158.50;4976547;28;20054;-68
2022/05/20 07:49:37;;;;;;;13.90;5.55;;;;;;;20.92;69.61;101144.47;4981615;28;20051;-69
2022/05/20 07:52:07;;;;;;;13.27;4.43;;;;;;;20.71;69.90;101174.84;4973408;28;20525;-65
2022/05/20 07:54:37;;;;;;;18.08;4.90;;;;;;;20.58;70.76;101192.97;4960717;28;20506;-66
2022/05/20 07:57:07;;;;;;;14.73;5.35;;;;;;;20.44;71.85;101178.69;4967036;28;20058;-68
2022/05/20 07:59:42;;;;;;;17.52;6.15;;;;;;;20.58;71.99;101173.38;4977667;28;20054;-67
2022/05/20 08:02:09;;;;;;;13.98;5.57;;;;;;;20.53;71.87;101154.09;4973032;28;20556;-65
2022/05/20 08:04:53;;;;;;;15.88;5.43;;;;;;;20.53;72.30;101152.09;4976775;28;22012;-67
2022/05/20 08:07:23;;;;;;;16.20;6.00;;;;;;;20.01;73.96;101149.00;4976753;28;20058;-66
2022/05/20 08:09:50;;;;;;;14.27;5.25;;;;;;;20.08;75.09;101124.75;4976468;28;20063;-66
2022/05/20 08:12:17;;;;;;;12.60;5.00;;;;;;;20.40;72.89;101136.63;4989296;28;20054;-66
2022/05/20 08:14:50;;;;;;;14.65;5.35;;;;;;;20.35;73.10;101122.13;4991178;28;20050;-67
2022/05/20 08:17:24;;;;;;;12.88;5.28;;;;;;;20.04;74.02;101106.28;4976503;28;20046;-66
2022/05/20 08:19:53;;;;;;;14.25;5.78;;;;;;;20.17;74.06;101142.16;4960136;28;20058;-68
2022/05/20 08:22:22;;;;;;;13.07;5.15;;;;;;;20.36;73.52;101144.19;4970147;28;20054;-67
2022/05/20 08:24:54;;;;;;;11.90;5.40;;;;;;;20.30;74.16;101100.06;4974174;28;20054;-66
2022/05/20 08:27:23;;;;;;;15.25;5.45;;;;;;;20.15;75.13;101116.50;4991248;28;20071;-65
2022/05/20 08:29:51;;;;;;;13.98;5.63;;;;;;;20.21;74.80;101119.06;4976450;28;20463;-65
2022/05/20 08:32:19;;;;;;;13.60;5.40;;;;;;;20.17;75.78;101135.78;4959171;28;20047;-68
2022/05/20 08:34:47;;;;;;;13.38;5.63;;;;;;;20.26;75.34;101099.97;4991110;28;20066;-68
2022/05/20 08:37:16;;;;;;;13.73;5.97;;;;;;;20.10;75.64;101149.59;4983820;28;20065;-68
2022/05/20 08:39:44;;;;;;;12.97;5.67;;;;;;;20.16;75.72;101187.28;4959887;28;20137;-67
2022/05/20 08:42:20;;;;;;;15.80;6.13;;;;;;;20.28;76.55;101231.91;4974318;28;20043;-68
2022/05/20 08:44:48;;;;;;;19.05;7.13;;;;;;;20.35;77.09;101273.22;4976393;28;20718;-65
2022/05/20 08:47:26;;;;;;;17.77;6.25;;;;;;;20.63;75.63;101293.44;4980412;28;20050;-65
2022/05/20 08:49:57;;;;;;;17.52;7.40;;;;;;;20.26;76.52;101248.25;4979399;28;20059;-66
2022/05/20 08:52:26;;;;;;;18.45;8.27;;;;;;;20.12;78.46;101194.75;4961803;28;20060;-66
2022/05/20 08:54:53;;;;;;;17.42;7.70;;;;;;;20.04;79.77;101167.81;4975552;28;20065;-67
2022/05/20 08:57:39;;;;;;;18.05;8.48;;;;;;;19.82;80.81;101149.75;4970319;28;20618;-64
2022/05/20 09:00:09;;;;;;;23.02;8.15;;;;;;;19.14;84.28;101175.59;4980655;28;20521;-67
2022/05/20 09:02:37;;;;;;;;;;;;;;;19.04;86.34;101146.22;4965238;28;20046;-65
2022/05/20 09:05:28;;;;;;;17.85;7.47;;;;;;;19.56;85.04;101149.53;4976804;28;19922;-66
2022/05/20 09:08:05;;;;;;;21.52;7.90;;;;;;;20.01;82.38;101160.97;4985440;28;20057;-66
2022/05/20 09:10:36;;;;;;;18.58;9.13;;;;;;;19.80;83.16;101154.91;4982090;28;20046;-65
2022/05/20 09:13:11;;;;;;;19.65;9.27;;;;;;;19.80;82.69;101138.16;4979290;28;20057;-66
2022/05/20 09:15:49;;;;;;;22.45;9.75;;;;;;;19.79;84.96;101147.69;4978885;28;20070;-66
2022/05/20 09:18:33;;;;;;;21.77;9.30;;;;;;;19.88;84.48;101142.72;4960904;28;20066;-66
2022/05/20 09:21:00;;;;;;;22.67;9.60;;;;;;;20.10;84.12;101141.97;4971693;28;20078;-67
2022/05/20 09:23:27;;;;;;;23.92;9.02;;;;;;;20.60;81.44;101123.44;4957915;28;20042;-65
2022/05/20 09:26:08;;;;;;;23.45;9.60;;;;;;;20.59;80.89;101114.22;4973690;28;20066;-70
2022/05/20 09:28:48;;;;;;;22.60;9.75;;;;;;;20.50;81.43;101102.47;4977483;28;20077;-70
2022/05/20 09:31:31;;;;;;;22.15;9.70;;;;;;;20.34;83.04;101098.97;4958931;28;20065;-70
2022/05/20 09:34:30;;;;;;;17.83;8.75;;;;;;;20.75;81.62;101161.72;4963785;28;20058;-71
2022/05/20 09:37:06;;;;;;;22.55;8.82;;;;;;;20.40;81.25;101284.16;4973203;28;20070;-70
2022/05/20 09:39:44;;;;;;;18.15;8.45;;;;;;;20.07;83.32;101343.28;4968982;28;20073;-71
2022/05/20 09:42:18;;;;;;;23.77;10.32;;;;;;;19.56;86.94;101252.16;4961275;28;20047;-66
2022/05/20 09:44:48;;;;;;;21.38;10.75;;;;;;;19.17;89.89;101075.16;4984118;28;20051;-71
2022/05/20 09:47:31;;;;;;;27.20;13.63;;;;;;;19.33;91.70;100999.72;4974229;28;21905;-69
2022/05/20 09:50:10;;;;;;;25.95;11.73;;;;;;;19.61;91.71;101025.50;4959207;28;20070;-65
2022/05/20 09:52:58;;;;;;;24.65;11.50;;;;;;;19.66;92.22;101111.84;4965718;28;20062;-65
2022/05/20 09:55:38;;;;;;;24.42;13.18;;;;;;;19.06;94.37;101115.94;4959356;28;20055;-69
2022/05/20 09:58:14;;;;;;;27.75;14.25;;;;;;;18.94;96.66;101065.78;4979851;28;20066;-66
2022/05/20 10:00:53;;;;;;;22.95;12.63;;;;;;;19.43;94.85;101036.28;4974475;28;20055;-66
2022/05/20 10:03:43;;;;;;;26.40;12.75;;;;;;;19.87;92.11;101017.25;4958599;28;20058;-66
2022/05/20 10:06:20;;;;;;;26.67;11.27;;;;;;;20.46;90.30;101042.00;4971591;28;20050;-71
2022/05/20 10:08:52;;;;;;;21.48;11.68;;;;;;;20.77;88.42;101036.97;4960482;28;20387;-65
2022/05/20 10:11:31;;;;;;;33.40;15.98;;;;;;;21.40;84.91;101042.81;4976052;28;20054;-65
2022/05/20 10:14:30;;;;;;;28.85;13.10;;;;;;;21.25;83.85;101058.59;4970266;28;20050;-67
2022/05/20 10:17:14;;;;;;;24.57;12.37;;;;;;;21.02;84.16;101082.25;4967357;28;20058;-69
2022/05/20 10:19:55;;;;;;;20.65;12.35;;;;;;;21.42;83.28;101081.66;4972316;28;20758;-73
2022/05/20 10:22:43;;;;;;;24.20;13.07;;;;;;;21.33;82.90;101089.53;4967458;28;20157;-70
2022/05/20 10:25:32;;;;;;;24.67;13.50;;;;;;;21.50;82.05;101094.59;4989219;28;20070;-71
2022/05/20 10:34:19;;;;;;;28.73;13.15;;;;;;;21.22;83.04;101086.56;4979038;28;20061;-70
2022/05/20 10:37:11;;;;;;;24.17;13.30;;;;;;;21.52;81.71;101069.78;4978685;28;20074;-71
2022/05/20 10:40:07;;;;;;;22.05;12.50;;;;;;;21.65;80.55;101065.59;4979179;28;20097;-71
2022/05/20 10:42:59;;;;;;;22.38;13.65;;;;;;;21.35;81.12;101071.16;4977636;28;20043;-70
2022/05/20 10:48:35;;;;;;;34.35;20.65;;;;;;;22.25;79.82;101039.94;4964708;28;20065;-65
2022/05/20 10:51:27;;;;;;;25.98;15.52;;;;;;;22.22;76.93;101031.47;4978069;28;20356;-66
2022/05/20 10:53:54;;;;;;;20.33;13.10;;;;;;;;;;4974665;28;20043;-67
2022/05/20 10:56:41;;;;;;;21.90;13.75;;;;;;;21.57;79.69;101061.06;4978502;28;20050;-73
2022/05/20 10:59:20;;;;;;;27.13;15.15;;;;;;;21.84;80.11;101062.66;4971634;28;20047;-64
2022/05/20 11:02:06;;;;;;;23.73;13.02;;;;;;;22.18;78.79;101064.28;4976490;28;20150;-65
2022/05/20 11:04:40;;;;;;;23.92;13.75;;;;;;;22.35;78.89;101058.09;4977215;28;20054;-67
2022/05/20 11:07:32;;;;;;;23.65;14.10;;;;;;;22.52;79.54;101062.25;4991179;28;20058;-66
2022/05/20 11:10:15;;;;;;;28.30;15.93;;;;;;;22.80;77.77;101071.00;4973544;28;20043;-66
2022/05/20 11:12:52;;;;;;;22.35;12.23;;;;;;;23.05;76.67;101077.63;4977933;28;20050;-66
2022/05/20 11:15:32;;;;;;;21.73;12.20;;;;;;;23.18;76.13;101096.63;4977787;28;20047;-65
2022/05/20 11:18:26;;;;;;;22.50;13.45;;;;;;;22.59;78.85;101105.31;4981629;28;20046;-66
2022/05/20 11:20:58;;;;;;;23.00;11.88;;;;;;;22.79;78.86;101106.69;4961223;28;20062;-66
2022/05/20 11:23:32;;;;;;;20.67;13.15;;;;;;;23.02;78.57;101112.94;4977972;28;20046;-65
2022/05/20 11:26:23;;;;;;;18.23;12.15;;;;;;;23.14;78.72;101121.06;4974602;28;20054;-65
2022/05/20 11:28:54;;;;;;;20.95;12.00;;;;;;;23.06;78.97;101112.97;4972765;28;20050;-67
2022/05/20 11:31:24;;;;;;;22.15;11.55;;;;;;;23.05;80.26;101106.53;4978316;28;20066;-65
2022/05/20 11:34:04;;;;;;;18.70;9.60;;;;;;;23.32;78.83;101110.00;4976750;28;20074;-65
2022/05/20 11:36:52;;;;;;;20.52;9.27;;;;;;;23.28;79.09;101109.16;4976565;28;20046;-67
2022/05/20 11:39:30;;;;;;;14.73;9.05;;;;;;;23.18;80.70;101098.63;4991805;28;20055;-65
2022/05/20 11:42:20;;;;;;;13.52;7.90;;;;;;;23.44;77.36;101109.69;5004987;28;20465;-66
2022/05/20 11:44:53;;;;;;;19.70;7.83;;;;;;;23.66;75.75;101090.97;4987742;28;20066;-66
2022/05/20 11:47:25;;;;;;;17.60;7.43;;;;;;;24.21;74.50;101082.03;4977630;28;20301;-67
2022/05/20 11:50:08;;;;;;;15.30;6.78;;;;;;;24.66;71.78;101074.06;4985508;28;20054;-67
2022/05/20 11:52:59;;;;;;;12.98;6.13;;;;;;;24.37;70.23;101076.81;4979298;28;20055;-66
2022/05/20 11:55:33;;;;;;;15.30;6.15;;;;;;;24.04;69.98;101074.28;4988495;28;20050;-71
2022/05/20 11:58:04;;;;;;;14.73;5.28;;;;;;;23.70;68.14;101061.66;4992434;28;20482;-71
2022/05/20 12:00:35;;;;;;;12.90;5.18;;;;;;;23.89;68.25;101052.91;4978239;28;20514;-71
2022/05/20 12:03:11;;;;;;;12.70;5.38;;;;;;;24.14;66.42;101051.03;4976714;28;20039;-71
2022/05/20 12:05:44;;;;;;;13.05;5.03;;;;;;;24.15;64.62;101052.63;4973265;28;20403;-70
2022/05/20 12:08:46;;;;;;;11.60;5.65;;;;;;;24.48;63.64;101057.94;4977184;28;20058;-72
2022/05/20 12:11:33;;;;;;;13.35;5.05;;;;;;;24.57;61.43;101048.28;4990741;28;20051;-72
2022/05/20 12:14:08;;;;;;;12.15;5.22;;;;;;;24.29;61.14;101047.03;4966445;28;20047;-72
2022/05/20 12:17:04;;;;;;;10.43;4.68;;;;;;;24.41;60.85;101060.75;4965639;28;20058;-71